sensor_id;sensor_type;location;lat;lon;timestamp;temperature;humidity
75685;HTU21D;64298;46.050;38.164;2023-04-06T00:00:23;12.30;80.93
75685;HTU21D;64298;46.050;38.164;2023-04-06T00:02:49;12.27;80.99
75685;HTU21D;64298;46.050;38.164;2023-04-06T00:05:15;12.28;80.97
75685;HTU21D;64298;46.050;38.164;2023-04-06T00:07:41;12.28;80.94
75685;HTU21D;64298;46.050;38.164;2023-04-06T00:10:08;12.30;80.81
75685;HTU21D;64298;46.050;38.164;2023-04-06T00:12:52;12.31;80.79
75685;HTU21D;64298;46.050;38.164;2023-04-06T00:15:20;12.32;80.85
75685;HTU21D;64298;46.050;38.164;2023-04-06T00:17:46;12.33;80.68
75685;HTU21D;64298;46.050;38.164;2023-04-06T00:20:12;12.34;80.62
75685;HTU21D;64298;46.050;38.164;2023-04-06T00:22:37;12.33;80.65
75685;HTU21D;64298;46.050;38.164;2023-04-06T00:25:04;12.35;80.55
75685;HTU21D;64298;46.050;38.164;2023-04-06T00:27:30;12.35;80.39
75685;HTU21D;64298;46.050;38.164;2023-04-06T00:30:14;12.37;80.20
75685;HTU21D;64298;46.050;38.164;2023-04-06T00:32:41;12.37;80.09
75685;HTU21D;64298;46.050;38.164;2023-04-06T00:35:07;12.38;79.98
75685;HTU21D;64298;46.050;38.164;2023-04-06T00:37:33;12.38;79.86
75685;HTU21D;64298;46.050;38.164;2023-04-06T00:39:59;12.42;79.74
75685;HTU21D;64298;46.050;38.164;2023-04-06T00:42:26;12.36;79.68
75685;HTU21D;64298;46.050;38.164;2023-04-06T00:44:53;12.34;79.72
75685;HTU21D;64298;46.050;38.164;2023-04-06T00:47:21;12.36;79.66
75685;HTU21D;64298;46.050;38.164;2023-04-06T00:49:47;12.36;79.59
75685;HTU21D;64298;46.050;38.164;2023-04-06T00:52:13;12.40;79.50
75685;HTU21D;64298;46.050;38.164;2023-04-06T00:54:41;12.41;79.49
75685;HTU21D;64298;46.050;38.164;2023-04-06T00:57:10;12.41;79.40
75685;HTU21D;64298;46.050;38.164;2023-04-06T00:59:37;12.43;79.30
75685;HTU21D;64298;46.050;38.164;2023-04-06T01:02:08;12.45;79.23
75685;HTU21D;64298;46.050;38.164;2023-04-06T01:04:41;12.43;79.18
75685;HTU21D;64298;46.050;38.164;2023-04-06T01:07:13;12.40;79.24
75685;HTU21D;64298;46.050;38.164;2023-04-06T01:09:47;12.36;79.30
75685;HTU21D;64298;46.050;38.164;2023-04-06T01:12:20;12.34;79.38
75685;HTU21D;64298;46.050;38.164;2023-04-06T01:14:46;12.33;79.49
75685;HTU21D;64298;46.050;38.164;2023-04-06T01:17:13;12.26;79.72
75685;HTU21D;64298;46.050;38.164;2023-04-06T01:19:39;12.18;80.14
75685;HTU21D;64298;46.050;38.164;2023-04-06T01:22:07;12.02;80.52
75685;HTU21D;64298;46.050;38.164;2023-04-06T01:24:43;11.93;80.79
75685;HTU21D;64298;46.050;38.164;2023-04-06T01:27:21;11.91;80.81
75685;HTU21D;64298;46.050;38.164;2023-04-06T01:30:06;11.89;80.62
75685;HTU21D;64298;46.050;38.164;2023-04-06T01:32:44;11.88;80.35
75685;HTU21D;64298;46.050;38.164;2023-04-06T01:35:13;11.87;80.18
75685;HTU21D;64298;46.050;38.164;2023-04-06T01:37:46;11.87;80.02
75685;HTU21D;64298;46.050;38.164;2023-04-06T01:40:20;11.90;79.82
75685;HTU21D;64298;46.050;38.164;2023-04-06T01:42:49;11.91;79.62
75685;HTU21D;64298;46.050;38.164;2023-04-06T01:45:23;11.92;79.38
75685;HTU21D;64298;46.050;38.164;2023-04-06T01:47:52;11.91;79.20
75685;HTU21D;64298;46.050;38.164;2023-04-06T01:50:22;11.88;79.10
75685;HTU21D;64298;46.050;38.164;2023-04-06T01:52:48;11.88;78.98
75685;HTU21D;64298;46.050;38.164;2023-04-06T01:55:14;11.89;78.90
75685;HTU21D;64298;46.050;38.164;2023-04-06T01:58:13;11.89;78.75
75685;HTU21D;64298;46.050;38.164;2023-04-06T02:00:40;11.91;78.64
75685;HTU21D;64298;46.050;38.164;2023-04-06T02:03:06;11.91;78.43
75685;HTU21D;64298;46.050;38.164;2023-04-06T02:05:33;11.91;78.32
75685;HTU21D;64298;46.050;38.164;2023-04-06T02:08:08;11.93;78.16
75685;HTU21D;64298;46.050;38.164;2023-04-06T02:10:37;11.94;77.97
75685;HTU21D;64298;46.050;38.164;2023-04-06T02:13:11;11.94;77.79
75685;HTU21D;64298;46.050;38.164;2023-04-06T02:15:39;11.94;77.68
75685;HTU21D;64298;46.050;38.164;2023-04-06T02:18:05;11.97;77.60
75685;HTU21D;64298;46.050;38.164;2023-04-06T02:20:32;12.01;77.44
75685;HTU21D;64298;46.050;38.164;2023-04-06T02:22:58;11.99;77.15
75685;HTU21D;64298;46.050;38.164;2023-04-06T02:25:26;11.99;77.05
75685;HTU21D;64298;46.050;38.164;2023-04-06T02:27:52;11.99;76.94
75685;HTU21D;64298;46.050;38.164;2023-04-06T02:30:18;12.00;76.94
75685;HTU21D;64298;46.050;38.164;2023-04-06T02:32:44;12.00;76.85
75685;HTU21D;64298;46.050;38.164;2023-04-06T02:35:30;12.00;76.68
75685;HTU21D;64298;46.050;38.164;2023-04-06T02:37:57;11.98;76.62
75685;HTU21D;64298;46.050;38.164;2023-04-06T02:40:23;11.98;76.66
75685;HTU21D;64298;46.050;38.164;2023-04-06T02:42:49;11.99;76.63
75685;HTU21D;64298;46.050;38.164;2023-04-06T02:45:19;12.01;76.57
75685;HTU21D;64298;46.050;38.164;2023-04-06T02:47:47;12.00;76.41
75685;HTU21D;64298;46.050;38.164;2023-04-06T02:50:15;11.93;76.46
75685;HTU21D;64298;46.050;38.164;2023-04-06T02:52:49;11.91;76.58
75685;HTU21D;64298;46.050;38.164;2023-04-06T02:55:16;11.90;76.63
75685;HTU21D;64298;46.050;38.164;2023-04-06T02:57:41;11.89;76.63
75685;HTU21D;64298;46.050;38.164;2023-04-06T03:00:08;11.90;76.66
75685;HTU21D;64298;46.050;38.164;2023-04-06T03:02:38;11.91;76.72
75685;HTU21D;64298;46.050;38.164;2023-04-06T03:05:09;11.91;76.71
75685;HTU21D;64298;46.050;38.164;2023-04-06T03:07:39;11.89;76.77
75685;HTU21D;64298;46.050;38.164;2023-04-06T03:10:23;11.90;76.77
75685;HTU21D;64298;46.050;38.164;2023-04-06T03:12:49;11.89;76.76
75685;HTU21D;64298;46.050;38.164;2023-04-06T03:15:22;11.89;76.73
75685;HTU21D;64298;46.050;38.164;2023-04-06T03:18:06;11.86;76.76
75685;HTU21D;64298;46.050;38.164;2023-04-06T03:20:38;11.86;76.78
75685;HTU21D;64298;46.050;38.164;2023-04-06T03:23:05;11.84;76.78
75685;HTU21D;64298;46.050;38.164;2023-04-06T03:25:38;11.84;76.73
75685;HTU21D;64298;46.050;38.164;2023-04-06T03:28:08;11.81;76.74
75685;HTU21D;64298;46.050;38.164;2023-04-06T03:30:39;11.82;76.75
75685;HTU21D;64298;46.050;38.164;2023-04-06T03:33:06;11.82;76.76
75685;HTU21D;64298;46.050;38.164;2023-04-06T03:35:39;11.81;76.79
75685;HTU21D;64298;46.050;38.164;2023-04-06T03:38:07;11.78;77.16
75685;HTU21D;64298;46.050;38.164;2023-04-06T03:40:33;11.72;77.17
75685;HTU21D;64298;46.050;38.164;2023-04-06T03:42:59;11.61;77.56
75685;HTU21D;64298;46.050;38.164;2023-04-06T03:45:25;11.48;77.92
75685;HTU21D;64298;46.050;38.164;2023-04-06T03:47:51;11.38;78.32
75685;HTU21D;64298;46.050;38.164;2023-04-06T03:50:18;11.29;78.70
75685;HTU21D;64298;46.050;38.164;2023-04-06T03:52:45;11.30;78.63
75685;HTU21D;64298;46.050;38.164;2023-04-06T03:55:11;11.27;78.56
75685;HTU21D;64298;46.050;38.164;2023-04-06T03:57:37;11.25;78.43
75685;HTU21D;64298;46.050;38.164;2023-04-06T04:00:03;11.28;78.30
75685;HTU21D;64298;46.050;38.164;2023-04-06T04:02:38;11.27;78.02
75685;HTU21D;64298;46.050;38.164;2023-04-06T04:05:04;11.26;77.68
75685;HTU21D;64298;46.050;38.164;2023-04-06T04:07:30;11.25;77.53
75685;HTU21D;64298;46.050;38.164;2023-04-06T04:09:56;11.26;77.24
75685;HTU21D;64298;46.050;38.164;2023-04-06T04:12:22;11.23;77.02
75685;HTU21D;64298;46.050;38.164;2023-04-06T04:14:48;11.24;76.89
75685;HTU21D;64298;46.050;38.164;2023-04-06T04:17:15;11.26;76.74
75685;HTU21D;64298;46.050;38.164;2023-04-06T04:19:41;11.27;76.70
75685;HTU21D;64298;46.050;38.164;2023-04-06T04:22:07;11.28;76.64
75685;HTU21D;64298;46.050;38.164;2023-04-06T04:24:37;11.29;76.44
75685;HTU21D;64298;46.050;38.164;2023-04-06T04:27:03;11.30;76.31
75685;HTU21D;64298;46.050;38.164;2023-04-06T04:29:32;11.30;76.15
75685;HTU21D;64298;46.050;38.164;2023-04-06T04:32:02;11.33;76.09
75685;HTU21D;64298;46.050;38.164;2023-04-06T04:34:30;11.37;76.07
75685;HTU21D;64298;46.050;38.164;2023-04-06T04:36:56;11.40;75.98
75685;HTU21D;64298;46.050;38.164;2023-04-06T04:39:34;11.40;75.71
75685;HTU21D;64298;46.050;38.164;2023-04-06T04:42:04;11.40;75.57
75685;HTU21D;64298;46.050;38.164;2023-04-06T04:44:33;11.40;75.31
75685;HTU21D;64298;46.050;38.164;2023-04-06T04:47:00;11.41;75.35
75685;HTU21D;64298;46.050;38.164;2023-04-06T04:49:36;11.42;75.27
75685;HTU21D;64298;46.050;38.164;2023-04-06T04:52:03;11.45;75.30
75685;HTU21D;64298;46.050;38.164;2023-04-06T04:54:43;11.48;75.01
75685;HTU21D;64298;46.050;38.164;2023-04-06T04:57:15;11.48;74.96
75685;HTU21D;64298;46.050;38.164;2023-04-06T04:59:43;11.47;75.04
75685;HTU21D;64298;46.050;38.164;2023-04-06T05:02:16;11.48;74.89
75685;HTU21D;64298;46.050;38.164;2023-04-06T05:04:56;11.49;74.88
75685;HTU21D;64298;46.050;38.164;2023-04-06T05:07:25;11.52;74.86
75685;HTU21D;64298;46.050;38.164;2023-04-06T05:09:53;11.55;74.83
75685;HTU21D;64298;46.050;38.164;2023-04-06T05:12:23;11.56;74.76
75685;HTU21D;64298;46.050;38.164;2023-04-06T05:15:04;11.56;74.62
75685;HTU21D;64298;46.050;38.164;2023-04-06T05:17:30;11.59;74.58
75685;HTU21D;64298;46.050;38.164;2023-04-06T05:19:57;11.60;74.44
75685;HTU21D;64298;46.050;38.164;2023-04-06T05:22:24;11.59;74.42
75685;HTU21D;64298;46.050;38.164;2023-04-06T05:25:01;11.56;74.34
75685;HTU21D;64298;46.050;38.164;2023-04-06T05:27:29;11.57;74.44
75685;HTU21D;64298;46.050;38.164;2023-04-06T05:29:55;11.56;74.39
75685;HTU21D;64298;46.050;38.164;2023-04-06T05:32:22;11.55;74.36
75685;HTU21D;64298;46.050;38.164;2023-04-06T05:34:51;11.56;74.45
75685;HTU21D;64298;46.050;38.164;2023-04-06T05:37:17;11.57;74.41
75685;HTU21D;64298;46.050;38.164;2023-04-06T05:39:43;11.56;74.45
75685;HTU21D;64298;46.050;38.164;2023-04-06T05:42:09;11.56;74.49
75685;HTU21D;64298;46.050;38.164;2023-04-06T05:44:50;11.57;74.59
75685;HTU21D;64298;46.050;38.164;2023-04-06T05:47:17;11.55;74.74
75685;HTU21D;64298;46.050;38.164;2023-04-06T05:49:48;11.55;75.04
75685;HTU21D;64298;46.050;38.164;2023-04-06T05:52:22;11.55;75.21
75685;HTU21D;64298;46.050;38.164;2023-04-06T05:55:07;11.59;75.17
75685;HTU21D;64298;46.050;38.164;2023-04-06T05:57:33;11.57;75.29
75685;HTU21D;64298;46.050;38.164;2023-04-06T06:00:01;11.59;75.27
75685;HTU21D;64298;46.050;38.164;2023-04-06T06:02:38;11.60;75.15
75685;HTU21D;64298;46.050;38.164;2023-04-06T06:05:07;11.60;75.11
75685;HTU21D;64298;46.050;38.164;2023-04-06T06:07:34;11.60;75.09
75685;HTU21D;64298;46.050;38.164;2023-04-06T06:10:01;11.62;75.01
75685;HTU21D;64298;46.050;38.164;2023-04-06T06:12:34;11.60;74.88
75685;HTU21D;64298;46.050;38.164;2023-04-06T06:15:01;11.57;74.80
75685;HTU21D;64298;46.050;38.164;2023-04-06T06:17:28;11.59;74.83
75685;HTU21D;64298;46.050;38.164;2023-04-06T06:19:55;11.61;74.72
75685;HTU21D;64298;46.050;38.164;2023-04-06T06:22:21;11.60;74.43
75685;HTU21D;64298;46.050;38.164;2023-04-06T06:24:49;11.57;74.28
75685;HTU21D;64298;46.050;38.164;2023-04-06T06:27:19;11.57;74.31
75685;HTU21D;64298;46.050;38.164;2023-04-06T06:29:46;11.59;74.16
75685;HTU21D;64298;46.050;38.164;2023-04-06T06:32:13;11.60;74.24
75685;HTU21D;64298;46.050;38.164;2023-04-06T06:34:58;11.68;74.19
75685;HTU21D;64298;46.050;38.164;2023-04-06T06:37:24;11.76;74.04
75685;HTU21D;64298;46.050;38.164;2023-04-06T06:39:50;11.77;73.77
75685;HTU21D;64298;46.050;38.164;2023-04-06T06:42:19;11.73;73.70
75685;HTU21D;64298;46.050;38.164;2023-04-06T06:45:11;11.73;73.80
75685;HTU21D;64298;46.050;38.164;2023-04-06T06:47:37;11.75;73.89
75685;HTU21D;64298;46.050;38.164;2023-04-06T06:50:03;11.79;73.88
75685;HTU21D;64298;46.050;38.164;2023-04-06T06:52:29;11.81;73.89
75685;HTU21D;64298;46.050;38.164;2023-04-06T06:54:55;11.81;73.99
75685;HTU21D;64298;46.050;38.164;2023-04-06T06:57:23;11.72;74.14
75685;HTU21D;64298;46.050;38.164;2023-04-06T06:59:49;11.72;74.31
75685;HTU21D;64298;46.050;38.164;2023-04-06T07:02:17;11.75;74.23
75685;HTU21D;64298;46.050;38.164;2023-04-06T07:04:43;11.79;74.09
75685;HTU21D;64298;46.050;38.164;2023-04-06T07:07:09;11.84;74.00
75685;HTU21D;64298;46.050;38.164;2023-04-06T07:09:37;11.90;73.79
75685;HTU21D;64298;46.050;38.164;2023-04-06T07:12:03;11.97;73.62
75685;HTU21D;64298;46.050;38.164;2023-04-06T07:14:29;11.93;73.41
75685;HTU21D;64298;46.050;38.164;2023-04-06T07:16:55;11.88;73.71
75685;HTU21D;64298;46.050;38.164;2023-04-06T07:19:21;11.82;73.97
75685;HTU21D;64298;46.050;38.164;2023-04-06T07:21:47;11.75;74.28
75685;HTU21D;64298;46.050;38.164;2023-04-06T07:24:15;11.75;74.53
75685;HTU21D;64298;46.050;38.164;2023-04-06T07:26:41;11.76;74.54
75685;HTU21D;64298;46.050;38.164;2023-04-06T07:29:07;11.81;74.57
75685;HTU21D;64298;46.050;38.164;2023-04-06T07:31:34;11.83;74.38
75685;HTU21D;64298;46.050;38.164;2023-04-06T07:34:01;11.89;74.12
75685;HTU21D;64298;46.050;38.164;2023-04-06T07:36:27;11.87;73.90
75685;HTU21D;64298;46.050;38.164;2023-04-06T07:38:53;11.85;74.10
75685;HTU21D;64298;46.050;38.164;2023-04-06T07:41:20;11.84;74.69
75685;HTU21D;64298;46.050;38.164;2023-04-06T07:43:47;11.77;75.08
75685;HTU21D;64298;46.050;38.164;2023-04-06T07:46:13;11.71;75.20
75685;HTU21D;64298;46.050;38.164;2023-04-06T07:48:39;11.70;75.38
75685;HTU21D;64298;46.050;38.164;2023-04-06T07:51:06;11.67;75.51
75685;HTU21D;64298;46.050;38.164;2023-04-06T07:53:36;11.66;75.50
75685;HTU21D;64298;46.050;38.164;2023-04-06T07:56:02;11.63;75.51
75685;HTU21D;64298;46.050;38.164;2023-04-06T07:58:28;11.57;75.54
75685;HTU21D;64298;46.050;38.164;2023-04-06T08:00:54;11.56;75.82
75685;HTU21D;64298;46.050;38.164;2023-04-06T08:03:20;11.56;75.87
75685;HTU21D;64298;46.050;38.164;2023-04-06T08:05:51;11.56;75.86
75685;HTU21D;64298;46.050;38.164;2023-04-06T08:08:18;11.56;75.96
75685;HTU21D;64298;46.050;38.164;2023-04-06T08:10:45;11.58;75.92
75685;HTU21D;64298;46.050;38.164;2023-04-06T08:13:11;11.59;75.86
75685;HTU21D;64298;46.050;38.164;2023-04-06T08:15:37;11.57;75.69
75685;HTU21D;64298;46.050;38.164;2023-04-06T08:18:03;11.53;75.51
75685;HTU21D;64298;46.050;38.164;2023-04-06T08:20:29;11.49;75.52
75685;HTU21D;64298;46.050;38.164;2023-04-06T08:22:55;11.49;75.68
75685;HTU21D;64298;46.050;38.164;2023-04-06T08:25:21;11.51;75.64
75685;HTU21D;64298;46.050;38.164;2023-04-06T08:27:47;11.49;75.55
75685;HTU21D;64298;46.050;38.164;2023-04-06T08:30:13;11.49;75.52
75685;HTU21D;64298;46.050;38.164;2023-04-06T08:32:40;11.51;75.51
75685;HTU21D;64298;46.050;38.164;2023-04-06T08:35:07;11.55;75.42
75685;HTU21D;64298;46.050;38.164;2023-04-06T08:37:33;11.58;75.21
75685;HTU21D;64298;46.050;38.164;2023-04-06T08:39:59;11.60;75.06
75685;HTU21D;64298;46.050;38.164;2023-04-06T08:42:26;11.66;74.98
75685;HTU21D;64298;46.050;38.164;2023-04-06T08:45:14;11.71;74.78
75685;HTU21D;64298;46.050;38.164;2023-04-06T08:47:42;11.77;74.66
75685;HTU21D;64298;46.050;38.164;2023-04-06T08:50:10;11.83;74.56
75685;HTU21D;64298;46.050;38.164;2023-04-06T08:52:40;11.83;74.25
75685;HTU21D;64298;46.050;38.164;2023-04-06T08:55:06;11.83;74.24
75685;HTU21D;64298;46.050;38.164;2023-04-06T08:57:35;11.81;74.20
75685;HTU21D;64298;46.050;38.164;2023-04-06T09:00:02;11.79;74.10
75685;HTU21D;64298;46.050;38.164;2023-04-06T09:02:47;11.81;74.12
75685;HTU21D;64298;46.050;38.164;2023-04-06T09:05:15;11.85;74.16
75685;HTU21D;64298;46.050;38.164;2023-04-06T09:07:42;11.87;73.99
75685;HTU21D;64298;46.050;38.164;2023-04-06T09:10:08;11.88;73.83
75685;HTU21D;64298;46.050;38.164;2023-04-06T09:12:34;11.88;73.70
75685;HTU21D;64298;46.050;38.164;2023-04-06T09:15:01;11.86;73.57
75685;HTU21D;64298;46.050;38.164;2023-04-06T09:17:31;11.88;73.59
75685;HTU21D;64298;46.050;38.164;2023-04-06T09:20:02;11.85;73.60
75685;HTU21D;64298;46.050;38.164;2023-04-06T09:22:36;11.76;73.74
75685;HTU21D;64298;46.050;38.164;2023-04-06T09:25:02;11.74;74.02
75685;HTU21D;64298;46.050;38.164;2023-04-06T09:27:36;11.72;74.31
75685;HTU21D;64298;46.050;38.164;2023-04-06T09:30:09;11.71;74.57
75685;HTU21D;64298;46.050;38.164;2023-04-06T09:32:46;11.68;74.93
75685;HTU21D;64298;46.050;38.164;2023-04-06T09:35:32;11.62;75.17
75685;HTU21D;64298;46.050;38.164;2023-04-06T09:37:58;11.59;75.34
75685;HTU21D;64298;46.050;38.164;2023-04-06T09:40:24;11.59;75.47
75685;HTU21D;64298;46.050;38.164;2023-04-06T09:42:51;11.59;75.70
75685;HTU21D;64298;46.050;38.164;2023-04-06T09:45:23;11.62;75.79
75685;HTU21D;64298;46.050;38.164;2023-04-06T09:47:49;11.69;75.72
75685;HTU21D;64298;46.050;38.164;2023-04-06T09:50:17;11.70;75.39
75685;HTU21D;64298;46.050;38.164;2023-04-06T09:52:52;11.67;75.31
75685;HTU21D;64298;46.050;38.164;2023-04-06T09:55:27;11.60;75.34
75685;HTU21D;64298;46.050;38.164;2023-04-06T09:58:05;11.53;75.28
75685;HTU21D;64298;46.050;38.164;2023-04-06T10:00:47;11.49;75.53
75685;HTU21D;64298;46.050;38.164;2023-04-06T10:03:20;11.51;75.67
75685;HTU21D;64298;46.050;38.164;2023-04-06T10:05:52;11.54;75.76
75685;HTU21D;64298;46.050;38.164;2023-04-06T10:08:22;11.56;75.77
75685;HTU21D;64298;46.050;38.164;2023-04-06T10:10:50;11.58;75.94
75685;HTU21D;64298;46.050;38.164;2023-04-06T10:13:17;11.57;75.95
75685;HTU21D;64298;46.050;38.164;2023-04-06T10:15:44;11.54;76.05
75685;HTU21D;64298;46.050;38.164;2023-04-06T10:18:10;11.55;76.05
75685;HTU21D;64298;46.050;38.164;2023-04-06T10:20:53;11.58;76.27
75685;HTU21D;64298;46.050;38.164;2023-04-06T10:23:48;11.57;76.31
75685;HTU21D;64298;46.050;38.164;2023-04-06T10:26:15;11.55;76.25
75685;HTU21D;64298;46.050;38.164;2023-04-06T10:28:42;11.52;76.34
75685;HTU21D;64298;46.050;38.164;2023-04-06T10:31:09;11.42;76.53
75685;HTU21D;64298;46.050;38.164;2023-04-06T10:33:35;11.38;76.81
75685;HTU21D;64298;46.050;38.164;2023-04-06T10:36:15;11.33;77.05
75685;HTU21D;64298;46.050;38.164;2023-04-06T10:38:41;11.31;77.09
75685;HTU21D;64298;46.050;38.164;2023-04-06T10:41:09;11.28;77.37
75685;HTU21D;64298;46.050;38.164;2023-04-06T10:43:38;11.22;77.53
75685;HTU21D;64298;46.050;38.164;2023-04-06T10:46:05;11.15;77.72
75685;HTU21D;64298;46.050;38.164;2023-04-06T10:48:40;11.12;78.07
75685;HTU21D;64298;46.050;38.164;2023-04-06T10:51:12;11.09;77.92
75685;HTU21D;64298;46.050;38.164;2023-04-06T10:53:42;11.02;78.18
75685;HTU21D;64298;46.050;38.164;2023-04-06T10:56:14;10.98;78.31
75685;HTU21D;64298;46.050;38.164;2023-04-06T10:58:47;10.95;78.37
75685;HTU21D;64298;46.050;38.164;2023-04-06T11:01:15;10.94;78.32
75685;HTU21D;64298;46.050;38.164;2023-04-06T11:03:44;10.93;78.34
75685;HTU21D;64298;46.050;38.164;2023-04-06T11:06:10;10.96;78.43
75685;HTU21D;64298;46.050;38.164;2023-04-06T11:08:37;10.94;78.32
75685;HTU21D;64298;46.050;38.164;2023-04-06T11:11:12;10.89;78.57
75685;HTU21D;64298;46.050;38.164;2023-04-06T11:13:50;10.90;78.68
75685;HTU21D;64298;46.050;38.164;2023-04-06T11:18:59;10.88;78.56
75685;HTU21D;64298;46.050;38.164;2023-04-06T11:21:54;10.88;78.80
75685;HTU21D;64298;46.050;38.164;2023-04-06T11:24:24;10.85;78.85
75685;HTU21D;64298;46.050;38.164;2023-04-06T11:26:55;10.84;78.75
75685;HTU21D;64298;46.050;38.164;2023-04-06T11:29:27;10.83;78.68
75685;HTU21D;64298;46.050;38.164;2023-04-06T11:32:00;10.81;78.92
75685;HTU21D;64298;46.050;38.164;2023-04-06T11:34:28;10.77;79.01
75685;HTU21D;64298;46.050;38.164;2023-04-06T11:37:02;10.75;79.24
75685;HTU21D;64298;46.050;38.164;2023-04-06T11:39:32;10.78;79.32
75685;HTU21D;64298;46.050;38.164;2023-04-06T11:42:03;10.79;79.40
75685;HTU21D;64298;46.050;38.164;2023-04-06T11:44:40;10.84;79.41
75685;HTU21D;64298;46.050;38.164;2023-04-06T11:47:30;10.89;79.52
75685;HTU21D;64298;46.050;38.164;2023-04-06T11:50:06;10.93;79.59
75685;HTU21D;64298;46.050;38.164;2023-04-06T11:52:32;10.94;79.56
75685;HTU21D;64298;46.050;38.164;2023-04-06T11:54:58;10.96;79.50
75685;HTU21D;64298;46.050;38.164;2023-04-06T11:57:26;10.96;79.54
75685;HTU21D;64298;46.050;38.164;2023-04-06T11:59:53;10.96;79.59
75685;HTU21D;64298;46.050;38.164;2023-04-06T12:02:19;10.94;79.64
75685;HTU21D;64298;46.050;38.164;2023-04-06T12:04:45;10.94;79.56
75685;HTU21D;64298;46.050;38.164;2023-04-06T12:07:11;10.95;79.71
75685;HTU21D;64298;46.050;38.164;2023-04-06T12:09:37;10.98;79.52
75685;HTU21D;64298;46.050;38.164;2023-04-06T12:12:04;11.00;79.42
75685;HTU21D;64298;46.050;38.164;2023-04-06T12:14:30;11.02;79.44
75685;HTU21D;64298;46.050;38.164;2023-04-06T12:16:57;11.09;79.46
75685;HTU21D;64298;46.050;38.164;2023-04-06T12:19:23;11.13;79.38
75685;HTU21D;64298;46.050;38.164;2023-04-06T12:21:54;11.17;79.23
75685;HTU21D;64298;46.050;38.164;2023-04-06T12:24:20;11.24;79.09
75685;HTU21D;64298;46.050;38.164;2023-04-06T12:26:46;11.27;78.92
75685;HTU21D;64298;46.050;38.164;2023-04-06T12:29:12;11.24;78.63
75685;HTU21D;64298;46.050;38.164;2023-04-06T12:31:39;11.20;78.64
75685;HTU21D;64298;46.050;38.164;2023-04-06T12:34:06;11.22;78.63
75685;HTU21D;64298;46.050;38.164;2023-04-06T12:36:33;11.19;78.43
75685;HTU21D;64298;46.050;38.164;2023-04-06T12:38:59;11.17;78.18
75685;HTU21D;64298;46.050;38.164;2023-04-06T12:41:29;11.16;78.28
75685;HTU21D;64298;46.050;38.164;2023-04-06T12:43:55;11.20;78.33
75685;HTU21D;64298;46.050;38.164;2023-04-06T12:46:23;11.17;77.96
75685;HTU21D;64298;46.050;38.164;2023-04-06T12:48:48;11.17;77.98
75685;HTU21D;64298;46.050;38.164;2023-04-06T12:51:15;11.11;78.04
75685;HTU21D;64298;46.050;38.164;2023-04-06T12:53:42;11.08;78.19
75685;HTU21D;64298;46.050;38.164;2023-04-06T12:56:17;11.11;78.24
75685;HTU21D;64298;46.050;38.164;2023-04-06T12:58:44;11.15;78.16
75685;HTU21D;64298;46.050;38.164;2023-04-06T13:01:10;11.18;78.07
75685;HTU21D;64298;46.050;38.164;2023-04-06T13:03:40;11.19;77.96
75685;HTU21D;64298;46.050;38.164;2023-04-06T13:06:07;11.20;77.98
75685;HTU21D;64298;46.050;38.164;2023-04-06T13:08:34;11.24;77.88
75685;HTU21D;64298;46.050;38.164;2023-04-06T13:11:04;11.24;77.77
75685;HTU21D;64298;46.050;38.164;2023-04-06T13:13:31;11.23;77.65
75685;HTU21D;64298;46.050;38.164;2023-04-06T13:16:02;11.24;77.66
75685;HTU21D;64298;46.050;38.164;2023-04-06T13:18:30;11.26;77.67
75685;HTU21D;64298;46.050;38.164;2023-04-06T13:20:57;11.30;77.66
75685;HTU21D;64298;46.050;38.164;2023-04-06T13:23:23;11.36;77.64
75685;HTU21D;64298;46.050;38.164;2023-04-06T13:26:04;11.44;77.55
75685;HTU21D;64298;46.050;38.164;2023-04-06T13:28:30;11.56;77.34
75685;HTU21D;64298;46.050;38.164;2023-04-06T13:30:59;11.71;77.10
75685;HTU21D;64298;46.050;38.164;2023-04-06T13:33:26;11.89;76.69
75685;HTU21D;64298;46.050;38.164;2023-04-06T13:35:52;12.14;76.17
75685;HTU21D;64298;46.050;38.164;2023-04-06T13:38:18;12.32;75.34
75685;HTU21D;64298;46.050;38.164;2023-04-06T13:40:45;12.37;74.80
75685;HTU21D;64298;46.050;38.164;2023-04-06T13:43:11;12.35;74.48
75685;HTU21D;64298;46.050;38.164;2023-04-06T13:45:37;12.32;74.78
75685;HTU21D;64298;46.050;38.164;2023-04-06T13:48:23;12.21;74.51
75685;HTU21D;64298;46.050;38.164;2023-04-06T13:50:50;12.11;74.85
75685;HTU21D;64298;46.050;38.164;2023-04-06T13:53:15;12.00;74.84
75685;HTU21D;64298;46.050;38.164;2023-04-06T13:55:41;11.86;74.97
75685;HTU21D;64298;46.050;38.164;2023-04-06T13:58:08;11.76;75.09
75685;HTU21D;64298;46.050;38.164;2023-04-06T14:00:34;11.72;75.28
75685;HTU21D;64298;46.050;38.164;2023-04-06T14:03:01;11.69;75.54
75685;HTU21D;64298;46.050;38.164;2023-04-06T14:05:31;11.67;75.46
75685;HTU21D;64298;46.050;38.164;2023-04-06T14:07:57;11.68;75.59
75685;HTU21D;64298;46.050;38.164;2023-04-06T14:10:23;11.66;75.54
75685;HTU21D;64298;46.050;38.164;2023-04-06T14:12:52;11.62;75.57
75685;HTU21D;64298;46.050;38.164;2023-04-06T14:15:18;11.57;75.39
75685;HTU21D;64298;46.050;38.164;2023-04-06T14:17:44;11.55;75.39
75685;HTU21D;64298;46.050;38.164;2023-04-06T14:20:10;11.52;75.44
75685;HTU21D;64298;46.050;38.164;2023-04-06T14:22:40;11.56;75.44
75685;HTU21D;64298;46.050;38.164;2023-04-06T14:25:07;11.53;75.30
75685;HTU21D;64298;46.050;38.164;2023-04-06T14:27:33;11.48;75.30
75685;HTU21D;64298;46.050;38.164;2023-04-06T14:29:59;11.44;75.49
75685;HTU21D;64298;46.050;38.164;2023-04-06T14:32:25;11.45;75.47
75685;HTU21D;64298;46.050;38.164;2023-04-06T14:34:52;11.41;75.63
75685;HTU21D;64298;46.050;38.164;2023-04-06T14:37:18;11.36;75.56
75685;HTU21D;64298;46.050;38.164;2023-04-06T14:39:44;11.24;75.70
75685;HTU21D;64298;46.050;38.164;2023-04-06T14:42:10;11.13;76.17
75685;HTU21D;64298;46.050;38.164;2023-04-06T14:44:36;11.05;76.51
75685;HTU21D;64298;46.050;38.164;2023-04-06T14:47:03;11.01;76.74
75685;HTU21D;64298;46.050;38.164;2023-04-06T14:49:32;10.96;77.17
75685;HTU21D;64298;46.050;38.164;2023-04-06T14:51:59;10.89;77.25
75685;HTU21D;64298;46.050;38.164;2023-04-06T14:54:25;10.85;77.29
75685;HTU21D;64298;46.050;38.164;2023-04-06T14:56:51;10.82;77.53
75685;HTU21D;64298;46.050;38.164;2023-04-06T14:59:17;10.92;77.40
75685;HTU21D;64298;46.050;38.164;2023-04-06T15:01:43;11.04;77.08
75685;HTU21D;64298;46.050;38.164;2023-04-06T15:04:09;11.15;76.73
75685;HTU21D;64298;46.050;38.164;2023-04-06T15:06:35;11.12;76.70
75685;HTU21D;64298;46.050;38.164;2023-04-06T15:09:01;11.07;77.05
75685;HTU21D;64298;46.050;38.164;2023-04-06T15:11:28;11.03;77.40
75685;HTU21D;64298;46.050;38.164;2023-04-06T15:13:54;10.98;77.53
75685;HTU21D;64298;46.050;38.164;2023-04-06T15:16:20;10.92;77.56